createdAt,value
2018-07-17T17:18:25.613Z,13.67
2018-07-17T17:20:36.261Z,14.37
2018-07-17T17:22:46.297Z,14.20
2018-07-17T17:24:56.646Z,15.17
2018-07-17T17:27:08.025Z,14.00
2018-07-17T17:29:17.035Z,14.50
2018-07-17T17:31:27.029Z,13.50
2018-07-17T17:33:37.018Z,14.63
2018-07-17T17:35:47.351Z,14.00
2018-07-17T17:37:58.279Z,14.30
2018-07-17T17:40:08.123Z,18.50
2018-07-17T17:42:20.214Z,33.20
2018-07-17T17:44:30.427Z,20.63
2018-07-17T17:46:41.004Z,18.50
2018-07-17T17:48:52.198Z,17.50
2018-07-17T17:51:02.090Z,18.13
2018-07-17T17:53:13.407Z,16.97
2018-07-17T17:55:23.598Z,17.83
2018-07-17T17:57:38.160Z,17.13
2018-07-17T17:59:48.019Z,17.70
2018-07-17T18:01:57.735Z,16.70
2018-07-17T18:04:07.340Z,17.13
2018-07-17T18:06:23.660Z,17.00
2018-07-17T18:08:38.394Z,16.23
2018-07-17T18:10:48.521Z,16.87
2018-07-17T18:12:59.487Z,18.20
2018-07-17T18:15:09.453Z,15.37
2018-07-17T18:17:20.660Z,14.60
2018-07-17T19:34:27.949Z,13.10
2018-07-17T19:36:39.062Z,13.53
2018-07-17T19:38:50.721Z,12.67
2018-07-17T19:40:59.740Z,14.40
2018-07-17T19:43:16.683Z,13.70
2018-07-17T19:45:27.997Z,13.90
2018-07-17T19:47:41.566Z,14.47
2018-07-17T19:49:53.153Z,13.33
2018-07-17T19:52:05.210Z,14.87
2018-07-17T19:54:16.482Z,13.10
2018-07-17T19:56:27.509Z,13.47
2018-07-17T19:58:36.868Z,14.73
2018-07-17T20:00:47.600Z,14.33
2018-07-17T20:02:59.712Z,13.47
2018-07-17T20:05:10.765Z,15.40
2018-07-17T20:07:21.815Z,15.40
2018-07-17T20:09:32.734Z,14.10
2018-07-17T20:11:43.417Z,15.50
2018-07-17T20:13:54.031Z,15.23
2018-07-17T20:16:04.485Z,14.00
2018-07-17T20:18:14.973Z,15.33
2018-07-17T20:20:25.832Z,13.20
2018-07-17T20:22:37.316Z,13.30
2018-07-17T20:24:48.883Z,13.23
2018-07-17T20:27:02.893Z,13.93
2018-07-17T20:29:14.601Z,13.47
2018-07-17T20:31:25.603Z,14.73
2018-07-17T20:33:41.098Z,14.47
2018-07-17T20:35:52.554Z,14.63
2018-07-17T20:38:04.124Z,15.57
2018-07-17T20:40:14.662Z,15.93
2018-07-17T20:42:24.958Z,17.80
2018-07-17T20:44:34.691Z,17.60
2018-07-17T20:46:48.193Z,19.30
2018-07-17T20:49:03.404Z,19.53
2018-07-17T20:51:15.376Z,22.35
2018-07-17T20:53:27.245Z,20.87
2018-07-17T20:55:40.700Z,24.70
2018-07-17T20:57:54.152Z,21.93
2018-07-17T21:00:05.730Z,22.43
2018-07-17T21:02:19.013Z,18.77
2018-07-17T21:04:33.835Z,22.87
2018-07-17T21:06:55.969Z,20.90
2018-07-17T21:09:07.271Z,21.42
2018-07-17T21:11:28.074Z,20.70
2018-07-17T21:13:44.414Z,21.30
2018-07-17T21:15:55.306Z,23.80
2018-07-17T21:18:07.085Z,22.93
2018-07-17T21:20:18.173Z,23.47
2018-07-17T21:22:29.143Z,24.70
2018-07-17T21:24:40.219Z,22.53
2018-07-17T21:26:49.460Z,23.20
2018-07-17T21:29:00.115Z,22.37
2018-07-17T21:31:11.171Z,23.57
2018-07-17T21:33:22.075Z,21.23
2018-07-17T21:35:33.731Z,20.93
2018-07-17T21:37:47.450Z,19.57
2018-07-17T21:39:58.378Z,18.70
2018-07-17T21:42:09.618Z,19.15
2018-07-17T21:44:20.487Z,17.10
2018-07-17T21:46:31.819Z,19.40
2018-07-17T21:48:43.172Z,19.13
2018-07-17T21:50:54.810Z,18.20
2018-07-17T22:31:50.479Z,13.93
2018-07-17T22:37:26.781Z,13.97
2018-07-17T22:39:43.605Z,13.40
2018-07-17T22:41:54.779Z,14.07
2018-07-17T22:44:05.876Z,13.53
2018-07-17T22:46:17.189Z,12.97
2018-07-17T22:48:28.412Z,12.93
2018-07-17T22:50:41.980Z,14.13
2018-07-17T22:52:52.552Z,12.47
2018-07-17T22:55:04.766Z,12.30
2018-07-17T22:57:16.221Z,13.30
2018-07-17T22:59:31.263Z,12.93
2018-07-17T23:01:45.572Z,13.37
2018-07-17T23:03:57.081Z,13.00
2018-07-17T23:06:05.690Z,13.07
2018-07-17T23:08:16.973Z,13.70
2018-07-17T23:10:29.630Z,13.80
2018-07-17T23:12:41.113Z,14.63
2018-07-17T23:14:51.267Z,14.60
2018-07-17T23:17:00.841Z,14.13
2018-07-17T23:19:11.376Z,14.67
2018-07-17T23:21:22.197Z,13.80
2018-07-17T23:23:33.029Z,13.10
2018-07-17T23:25:41.855Z,14.60
2018-07-17T23:27:52.305Z,14.30
2018-07-17T23:30:03.424Z,13.87
2018-07-17T23:32:15.179Z,14.30
2018-07-17T23:34:26.975Z,13.07
2018-07-17T23:36:41.092Z,13.03
2018-07-17T23:38:51.928Z,12.47
2018-07-17T23:41:04.666Z,13.17
2018-07-17T23:43:15.551Z,13.03
2018-07-17T23:45:28.060Z,11.80
2018-07-17T23:47:39.101Z,11.87
2018-07-17T23:49:50.194Z,11.80
2018-07-17T23:52:01.362Z,12.60
2018-07-17T23:54:12.356Z,11.47
2018-07-17T23:56:23.877Z,12.73
2018-07-17T23:58:33.183Z,11.93
